createdAt,value
2023-02-16T00:02:27.669Z,4.70
2023-02-16T00:05:33.928Z,5.45
2023-02-16T00:08:20.189Z,2.92
2023-02-16T00:11:31.766Z,3.22
2023-02-16T00:14:18.262Z,2.58
2023-02-16T00:17:05.648Z,1.90
2023-02-16T00:19:51.881Z,1.95
2023-02-16T00:22:38.030Z,1.95
2023-02-16T00:25:24.394Z,3.80
2023-02-16T00:28:15.913Z,2.78
2023-02-16T00:31:04.260Z,3.22
2023-02-16T00:33:50.760Z,6.53
2023-02-16T00:36:39.184Z,4.13
2023-02-16T00:39:26.364Z,4.32
2023-02-16T00:42:15.649Z,3.47
2023-02-16T00:45:01.953Z,4.43
2023-02-16T00:47:49.732Z,3.33
2023-02-16T00:50:35.807Z,1.85
2023-02-16T00:53:22.072Z,3.17
2023-02-16T00:56:10.090Z,2.10
2023-02-16T00:58:56.601Z,2.40
2023-02-16T01:01:43.013Z,2.28
2023-02-16T01:04:29.483Z,2.25
2023-02-16T01:07:35.325Z,4.80
2023-02-16T01:10:47.404Z,4.35
2023-02-16T01:13:36.891Z,2.55
2023-02-16T01:16:24.478Z,1.48
2023-02-16T01:19:11.306Z,2.90
2023-02-16T01:21:57.636Z,1.65
2023-02-16T01:25:06.628Z,1.88
2023-02-16T01:27:52.639Z,4.32
2023-02-16T01:30:38.704Z,4.07
2023-02-16T01:33:25.056Z,1.55
2023-02-16T01:36:34.327Z,6.55
2023-02-16T01:39:20.916Z,4.15
2023-02-16T01:42:10.302Z,2.40
2023-02-16T01:45:02.095Z,2.55
2023-02-16T01:47:51.820Z,2.97
2023-02-16T01:50:48.488Z,2.08
2023-02-16T01:53:50.592Z,4.85
2023-02-16T01:56:41.916Z,1.58
2023-02-16T01:59:37.533Z,4.07
2023-02-16T02:02:26.212Z,1.25
2023-02-16T02:05:38.056Z,2.25
2023-02-16T02:08:42.114Z,5.90
2023-02-16T02:11:32.776Z,2.42
2023-02-16T02:14:22.478Z,2.45
2023-02-16T02:17:09.986Z,2.13
2023-02-16T02:20:01.869Z,2.92
2023-02-16T02:23:29.971Z,2.92
2023-02-16T02:26:22.330Z,5.18
2023-02-16T02:32:00.860Z,1.77
2023-02-16T02:35:04.752Z,2.78
2023-02-16T02:37:51.400Z,4.93
2023-02-16T02:40:50.718Z,4.45
2023-02-16T02:43:41.522Z,5.85
2023-02-16T02:46:29.441Z,4.32
2023-02-16T02:49:15.447Z,4.88
2023-02-16T02:52:02.806Z,6.15
2023-02-16T02:55:08.518Z,3.17
2023-02-16T02:58:18.076Z,2.72
2023-02-16T03:01:04.529Z,3.83
2023-02-16T03:03:52.092Z,3.75
2023-02-16T03:06:44.039Z,3.95
2023-02-16T03:09:30.148Z,1.63
2023-02-16T03:12:35.107Z,1.63
2023-02-16T03:15:21.824Z,1.52
2023-02-16T03:18:27.836Z,1.50
2023-02-16T03:21:33.236Z,2.90
2023-02-16T03:24:43.845Z,1.85
2023-02-16T03:27:57.230Z,4.75
2023-02-16T03:33:29.082Z,2.45
2023-02-16T03:36:14.964Z,3.53
2023-02-16T03:39:01.912Z,1.52
2023-02-16T03:41:50.047Z,1.50
2023-02-16T03:44:36.315Z,2.50
2023-02-16T03:47:22.427Z,1.90
2023-02-16T03:50:08.843Z,2.22
2023-02-16T03:53:07.686Z,1.55
2023-02-16T03:55:53.967Z,2.95
2023-02-16T03:58:40.130Z,2.58
2023-02-16T04:01:26.265Z,3.38
2023-02-16T04:04:12.992Z,2.80
2023-02-16T04:06:59.079Z,3.78
2023-02-16T04:10:03.657Z,2.00
2023-02-16T04:12:49.873Z,4.20
2023-02-16T04:15:35.922Z,1.67
2023-02-16T04:18:21.875Z,2.78
2023-02-16T04:21:08.149Z,2.08
2023-02-16T04:23:54.183Z,5.78
2023-02-16T04:26:40.294Z,1.52
2023-02-16T04:29:26.519Z,1.85
2023-02-16T04:32:12.686Z,1.60
2023-02-16T04:34:58.984Z,2.22
2023-02-16T04:37:45.421Z,1.25
2023-02-16T04:40:31.838Z,1.88
2023-02-16T04:43:36.416Z,2.35
2023-02-16T04:46:22.732Z,4.78
2023-02-16T04:49:08.875Z,0.93
2023-02-16T04:51:54.883Z,3.15
2023-02-16T04:54:41.261Z,1.80
2023-02-16T04:57:27.513Z,3.33
2023-02-16T05:00:14.056Z,1.92
2023-02-16T05:03:00.147Z,3.15
2023-02-16T05:05:46.855Z,1.70
2023-02-16T05:08:33.202Z,3.55
2023-02-16T05:11:37.835Z,2.78
2023-02-16T05:14:47.057Z,2.85
2023-02-16T05:17:32.809Z,1.58
2023-02-16T05:20:19.285Z,1.75
2023-02-16T05:23:05.421Z,1.80
2023-02-16T05:25:51.550Z,1.33
2023-02-16T05:28:37.649Z,1.92
2023-02-16T05:31:25.164Z,1.65
2023-02-16T05:34:11.200Z,3.75
2023-02-16T05:36:57.483Z,3.13
2023-02-16T05:40:02.507Z,2.58
2023-02-16T05:42:54.922Z,3.08
2023-02-16T05:45:41.056Z,5.88
2023-02-16T05:48:27.117Z,3.88
2023-02-16T05:51:13.588Z,3.60
2023-02-16T05:53:59.385Z,4.20
2023-02-16T05:56:50.205Z,5.55
2023-02-16T05:59:36.433Z,2.90
2023-02-16T06:02:22.444Z,6.13
2023-02-16T06:05:08.663Z,5.18
2023-02-16T06:07:54.841Z,6.93
2023-02-16T06:10:41.027Z,5.18
2023-02-16T06:13:27.153Z,4.60
2023-02-16T06:16:13.428Z,8.77
2023-02-16T06:18:59.923Z,15.98
2023-02-16T06:21:46.686Z,12.35
2023-02-16T06:24:32.988Z,6.65
2023-02-16T06:27:19.199Z,4.75
2023-02-16T06:30:06.354Z,4.35
2023-02-16T06:32:52.183Z,5.28
2023-02-16T06:35:38.340Z,8.95
2023-02-16T06:38:24.417Z,5.40
2023-02-16T06:41:10.810Z,5.15
2023-02-16T06:44:01.049Z,9.18
2023-02-16T06:46:47.751Z,7.55
2023-02-16T06:49:33.606Z,10.25
2023-02-16T06:52:22.103Z,5.70
2023-02-16T06:55:08.168Z,4.55
2023-02-16T06:57:54.249Z,5.45
2023-02-16T07:00:40.491Z,6.70
2023-02-16T07:03:26.631Z,5.03
2023-02-16T07:06:12.891Z,6.75
2023-02-16T07:08:59.282Z,11.13
2023-02-16T07:11:45.125Z,8.30
2023-02-16T07:14:31.911Z,6.50
2023-02-16T07:17:18.224Z,6.97
2023-02-16T07:20:08.549Z,8.13
2023-02-16T07:22:54.906Z,12.50
2023-02-16T07:25:40.950Z,42.53
2023-02-16T07:28:27.167Z,15.45
2023-02-16T07:31:15.253Z,71.13
2023-02-16T07:34:01.743Z,52.70
2023-02-16T07:36:47.669Z,46.90
2023-02-16T07:39:34.259Z,120.63
2023-02-16T07:42:20.272Z,48.88
2023-02-16T07:45:06.814Z,85.97
2023-02-16T07:47:53.075Z,55.22
2023-02-16T07:50:39.234Z,43.80
2023-02-16T07:53:25.345Z,57.97
2023-02-16T07:56:18.715Z,48.13
2023-02-16T07:59:04.725Z,56.47
2023-02-16T08:01:50.897Z,42.10
2023-02-16T08:04:37.061Z,53.67
2023-02-16T08:07:23.375Z,48.30
2023-02-16T08:10:09.624Z,40.33
2023-02-16T08:12:55.894Z,48.75
2023-02-16T08:15:45.365Z,41.53
2023-02-16T08:18:31.579Z,32.33
2023-02-16T08:21:23.693Z,35.55
2023-02-16T08:26:55.962Z,48.10
2023-02-16T08:29:42.040Z,35.10
2023-02-16T08:32:28.133Z,33.83
2023-02-16T08:35:15.441Z,32.08
2023-02-16T08:38:02.524Z,34.15
2023-02-16T08:40:49.350Z,32.75
2023-02-16T08:43:35.833Z,8.77
2023-02-16T08:46:23.013Z,24.50
2023-02-16T08:49:09.730Z,8.20
2023-02-16T08:51:56.950Z,30.42
2023-02-16T08:54:42.795Z,21.45
2023-02-16T08:57:29.002Z,7.53
2023-02-16T09:00:36.263Z,3.65
2023-02-16T09:03:22.763Z,3.15
2023-02-16T09:06:10.256Z,4.05
2023-02-16T09:08:57.008Z,3.90
2023-02-16T09:11:43.154Z,17.98
2023-02-16T09:14:29.348Z,4.03
2023-02-16T09:17:15.320Z,7.60
2023-02-16T09:20:02.022Z,10.90
2023-02-16T09:22:54.024Z,7.15
2023-02-16T09:25:41.553Z,6.50
2023-02-16T09:28:27.497Z,19.65
2023-02-16T09:31:25.820Z,19.20
2023-02-16T09:34:19.670Z,18.25
2023-02-16T09:37:05.668Z,5.93
2023-02-16T09:39:51.903Z,24.65
2023-02-16T09:42:44.693Z,24.98
2023-02-16T09:45:35.237Z,24.98
2023-02-16T09:48:27.335Z,19.48
2023-02-16T09:51:29.436Z,15.90
2023-02-16T09:54:35.553Z,22.00
2023-02-16T09:57:41.496Z,21.90
2023-02-16T10:00:34.180Z,26.42
2023-02-16T10:03:26.603Z,16.33
2023-02-16T10:06:15.640Z,22.05
2023-02-16T10:09:04.698Z,30.33
2023-02-16T10:12:11.545Z,28.65
2023-02-16T10:15:19.998Z,16.05
2023-02-16T10:18:29.355Z,17.35
2023-02-16T10:21:17.808Z,39.70
2023-02-16T10:24:05.643Z,27.83
2023-02-16T10:26:58.194Z,19.83
2023-02-16T10:29:45.870Z,13.20
2023-02-16T10:32:43.663Z,15.80
2023-02-16T10:35:54.322Z,23.05
2023-02-16T10:39:04.953Z,28.88
2023-02-16T10:41:56.208Z,26.15
2023-02-16T10:44:55.037Z,25.35
2023-02-16T10:47:42.894Z,22.80
2023-02-16T10:50:36.343Z,29.20
2023-02-16T10:53:32.272Z,28.60
2023-02-16T10:56:21.594Z,25.20
2023-02-16T10:59:15.858Z,23.48
2023-02-16T11:02:05.006Z,29.52
2023-02-16T11:04:53.789Z,25.77
2023-02-16T11:07:52.805Z,20.35
2023-02-16T11:10:53.103Z,19.60
2023-02-16T11:13:39.346Z,19.60
2023-02-16T11:16:25.700Z,26.77
2023-02-16T11:19:23.375Z,21.90
2023-02-16T11:22:24.538Z,21.45
2023-02-16T11:25:20.510Z,29.35
2023-02-16T11:28:07.140Z,22.73
2023-02-16T11:30:59.138Z,22.27
2023-02-16T11:36:33.265Z,26.95
2023-02-16T11:39:21.762Z,22.88
2023-02-16T11:42:09.536Z,21.65
2023-02-16T11:44:57.262Z,19.65
2023-02-16T11:47:43.811Z,22.73
2023-02-16T11:50:31.798Z,25.85
2023-02-16T11:53:27.265Z,24.85
2023-02-16T11:56:27.460Z,27.67
2023-02-16T11:59:21.718Z,27.42
2023-02-16T12:02:17.734Z,25.65
2023-02-16T12:05:08.265Z,32.08
2023-02-16T12:08:07.421Z,31.02
2023-02-16T12:10:56.820Z,28.48
2023-02-16T12:13:52.484Z,33.75
2023-02-16T12:16:55.215Z,33.85
2023-02-16T12:22:40.453Z,29.40
2023-02-16T12:25:32.640Z,25.25
2023-02-16T12:28:35.733Z,29.67
2023-02-16T12:31:34.042Z,27.88
2023-02-16T12:34:21.301Z,28.45
2023-02-16T12:37:18.285Z,30.63
2023-02-16T12:40:34.234Z,24.08
2023-02-16T12:43:29.654Z,29.15
2023-02-16T12:46:23.915Z,29.55
2023-02-16T12:49:13.410Z,29.02
2023-02-16T12:52:08.789Z,23.77
2023-02-16T12:54:57.592Z,25.40
2023-02-16T12:57:48.956Z,24.70
2023-02-16T13:03:29.509Z,23.00
2023-02-16T13:06:37.585Z,24.70
2023-02-16T13:09:36.268Z,27.00
2023-02-16T13:12:22.881Z,28.15
2023-02-16T13:15:23.703Z,24.40
2023-02-16T13:18:21.291Z,35.03
2023-02-16T13:21:13.597Z,26.95
2023-02-16T13:24:19.536Z,33.47
2023-02-16T13:27:32.955Z,36.45
2023-02-16T13:30:26.301Z,51.45
2023-02-16T13:33:37.094Z,30.25
2023-02-16T13:36:29.154Z,26.48
2023-02-16T13:39:33.635Z,26.15
2023-02-16T13:42:29.627Z,27.67
2023-02-16T13:45:19.554Z,25.10
2023-02-16T13:48:13.682Z,25.17
2023-02-16T13:51:11.247Z,21.98
2023-02-16T13:54:07.615Z,28.20
2023-02-16T13:57:12.058Z,26.58
2023-02-16T14:00:33.150Z,26.05
2023-02-16T14:03:25.174Z,23.90
2023-02-16T14:06:40.455Z,37.40
2023-02-16T14:09:46.814Z,26.15
2023-02-16T14:12:47.674Z,27.80
2023-02-16T14:16:09.300Z,26.92
2023-02-16T14:19:25.246Z,37.22
2023-02-16T14:22:12.079Z,37.97
2023-02-16T14:24:59.957Z,36.03
2023-02-16T14:27:49.132Z,27.25
2023-02-16T14:30:36.785Z,26.98
2023-02-16T14:33:31.616Z,29.08
2023-02-16T14:36:19.301Z,34.88
2023-02-16T14:39:10.649Z,39.47
2023-02-16T14:42:06.511Z,28.95
2023-02-16T14:44:52.678Z,27.02
2023-02-16T14:47:55.476Z,27.05
2023-02-16T14:51:00.223Z,34.47
2023-02-16T14:53:58.381Z,28.98
2023-02-16T14:56:50.944Z,33.67
2023-02-16T14:59:55.913Z,28.65
2023-02-16T15:02:54.198Z,36.58
2023-02-16T15:05:40.969Z,47.25
2023-02-16T15:08:35.160Z,32.00
2023-02-16T15:11:23.770Z,26.60
2023-02-16T15:14:11.238Z,29.17
2023-02-16T15:16:57.746Z,44.25
2023-02-16T15:19:44.018Z,37.33
2023-02-16T15:22:30.512Z,29.08
2023-02-16T15:25:22.562Z,30.42
2023-02-16T15:28:11.420Z,34.87
2023-02-16T15:30:58.857Z,34.38
2023-02-16T15:33:56.869Z,40.70
2023-02-16T15:36:44.264Z,52.97
2023-02-16T15:39:49.775Z,62.85
2023-02-16T15:42:44.227Z,68.82
2023-02-16T15:45:37.856Z,62.22
2023-02-16T15:48:35.011Z,62.95
2023-02-16T15:51:29.124Z,72.45
2023-02-16T15:54:23.974Z,82.03
2023-02-16T15:57:12.822Z,82.95
2023-02-16T16:00:20.906Z,86.53
2023-02-16T16:03:08.507Z,87.10
2023-02-16T16:05:59.263Z,64.15
2023-02-16T16:08:47.992Z,52.05
2023-02-16T16:11:38.499Z,46.85
2023-02-16T16:14:26.063Z,50.35
2023-02-16T16:17:13.697Z,94.45
2023-02-16T16:20:19.220Z,87.53
2023-02-16T16:23:14.726Z,67.53
2023-02-16T16:26:00.503Z,27.48
2023-02-16T16:28:46.805Z,21.92
2023-02-16T16:31:34.227Z,16.30
2023-02-16T16:34:40.423Z,14.35
2023-02-16T16:37:29.444Z,16.38
2023-02-16T16:40:19.060Z,17.35
2023-02-16T16:43:07.345Z,13.23
2023-02-16T16:46:11.562Z,13.60
2023-02-16T16:49:16.569Z,4.20
2023-02-16T16:52:04.149Z,16.92
2023-02-16T16:54:50.475Z,4.45
2023-02-16T16:57:36.544Z,10.52
2023-02-16T17:00:23.520Z,4.82
2023-02-16T17:03:13.292Z,4.38
2023-02-16T17:05:59.126Z,5.40
2023-02-16T17:08:45.873Z,8.52
2023-02-16T17:11:36.169Z,9.48
2023-02-16T17:14:22.461Z,3.17
2023-02-16T17:17:11.891Z,4.68
2023-02-16T17:19:57.910Z,18.08
2023-02-16T17:22:43.840Z,7.70
2023-02-16T17:25:31.101Z,5.10
2023-02-16T17:28:17.889Z,21.92
2023-02-16T17:31:07.611Z,4.05
2023-02-16T17:33:54.029Z,3.50
2023-02-16T17:36:43.102Z,5.65
2023-02-16T17:39:30.152Z,15.65
2023-02-16T17:42:16.390Z,23.08
2023-02-16T17:45:03.362Z,5.50
2023-02-16T17:47:50.519Z,5.75
2023-02-16T17:50:39.749Z,12.30
2023-02-16T17:53:26.860Z,9.45
2023-02-16T17:56:14.710Z,10.02
2023-02-16T17:59:01.220Z,10.65
2023-02-16T18:02:06.805Z,8.07
2023-02-16T18:04:54.306Z,4.82
2023-02-16T18:07:40.438Z,6.60
2023-02-16T18:10:35.700Z,3.78
2023-02-16T18:13:22.176Z,4.60
2023-02-16T18:16:09.248Z,4.35
2023-02-16T18:18:57.445Z,7.50
2023-02-16T18:21:44.137Z,6.63
2023-02-16T18:24:30.844Z,5.95
2023-02-16T18:27:18.579Z,4.03
2023-02-16T18:30:06.092Z,5.43
2023-02-16T18:32:52.001Z,4.35
2023-02-16T18:35:39.806Z,4.13
2023-02-16T18:38:27.280Z,9.30
2023-02-16T18:41:14.365Z,2.03
2023-02-16T18:44:01.488Z,5.68
2023-02-16T18:46:47.887Z,6.93
2023-02-16T18:49:34.550Z,15.73
2023-02-16T18:52:20.510Z,11.13
2023-02-16T18:55:08.143Z,10.25
2023-02-16T18:57:55.127Z,9.77
2023-02-16T19:00:42.022Z,10.02
2023-02-16T19:03:34.320Z,7.00
2023-02-16T19:06:20.344Z,9.68
2023-02-16T19:09:09.410Z,8.13
2023-02-16T19:11:55.881Z,4.72
2023-02-16T19:14:42.078Z,5.82
2023-02-16T19:17:28.448Z,6.30
2023-02-16T19:20:18.323Z,8.02
2023-02-16T19:23:04.359Z,6.97
2023-02-16T19:25:50.453Z,7.28
2023-02-16T19:28:38.259Z,4.18
2023-02-16T19:31:26.306Z,15.57
2023-02-16T19:34:12.546Z,2.83
2023-02-16T19:36:58.688Z,6.60
2023-02-16T19:39:44.724Z,6.38
2023-02-16T19:42:30.782Z,4.68
2023-02-16T19:45:16.979Z,5.93
2023-02-16T19:48:03.133Z,5.10
2023-02-16T19:50:49.157Z,5.07
2023-02-16T19:53:37.174Z,5.45
2023-02-16T19:56:24.583Z,4.38
2023-02-16T19:59:10.624Z,4.65
2023-02-16T20:01:58.331Z,3.92
2023-02-16T20:04:44.738Z,1.90
2023-02-16T20:07:31.556Z,5.30
2023-02-16T20:10:17.962Z,4.20
2023-02-16T20:13:04.054Z,3.55
2023-02-16T20:15:50.285Z,4.78
2023-02-16T20:18:36.816Z,29.25
2023-02-16T20:21:23.711Z,9.95
2023-02-16T20:24:09.849Z,3.55
2023-02-16T20:26:56.065Z,18.63
2023-02-16T20:29:42.169Z,5.95
2023-02-16T20:32:32.173Z,3.88
2023-02-16T20:35:18.460Z,4.47
2023-02-16T20:38:06.853Z,4.60
2023-02-16T20:40:53.111Z,4.40
2023-02-16T20:43:39.457Z,6.18
2023-02-16T20:46:26.376Z,4.13
2023-02-16T20:49:13.577Z,4.10
2023-02-16T20:51:59.737Z,3.90
2023-02-16T20:54:45.814Z,3.05
2023-02-16T20:57:32.291Z,1.75
2023-02-16T21:00:21.759Z,4.50
2023-02-16T21:03:08.447Z,7.05
2023-02-16T21:05:54.845Z,6.95
2023-02-16T21:08:41.208Z,4.85
2023-02-16T21:11:27.840Z,5.20
2023-02-16T21:14:13.805Z,5.38
2023-02-16T21:17:00.185Z,4.95
2023-02-16T21:19:46.646Z,5.40
2023-02-16T21:22:32.849Z,3.38
2023-02-16T21:25:19.148Z,3.17
2023-02-16T21:28:05.398Z,3.00
2023-02-16T21:31:11.387Z,1.40
2023-02-16T21:34:00.744Z,3.63
2023-02-16T21:36:49.573Z,3.28
2023-02-16T21:39:55.579Z,2.58
2023-02-16T21:42:41.848Z,3.75
2023-02-16T21:45:28.002Z,3.50
2023-02-16T21:48:32.668Z,3.38
2023-02-16T21:51:24.342Z,3.58
2023-02-16T21:54:14.260Z,3.35
2023-02-16T21:57:00.972Z,4.82
2023-02-16T21:59:47.341Z,1.92
2023-02-16T22:02:33.457Z,3.17
2023-02-16T22:05:38.558Z,2.45
2023-02-16T22:08:24.569Z,5.05
2023-02-16T22:11:12.516Z,6.45
2023-02-16T22:13:59.575Z,5.28
2023-02-16T22:16:47.215Z,3.33
2023-02-16T22:19:33.927Z,4.35
2023-02-16T22:22:21.037Z,1.80
2023-02-16T22:25:07.300Z,6.78
2023-02-16T22:27:53.793Z,3.65
2023-02-16T22:30:40.160Z,4.13
2023-02-16T22:33:26.246Z,3.92
2023-02-16T22:36:16.407Z,2.42
2023-02-16T22:39:02.320Z,5.00
2023-02-16T22:41:49.333Z,5.40
2023-02-16T22:44:55.489Z,5.95
2023-02-16T22:47:50.368Z,6.00
2023-02-16T22:50:37.705Z,6.07
2023-02-16T22:53:26.107Z,6.18
2023-02-16T22:56:16.097Z,5.60
2023-02-16T22:59:02.416Z,5.32
2023-02-16T23:01:48.535Z,3.47
2023-02-16T23:04:35.063Z,4.20
2023-02-16T23:07:21.952Z,3.83
2023-02-16T23:10:08.025Z,8.18
2023-02-16T23:12:54.549Z,2.78
2023-02-16T23:15:40.657Z,3.63
2023-02-16T23:18:26.739Z,6.53
2023-02-16T23:21:24.811Z,4.68
2023-02-16T23:24:15.737Z,4.63
2023-02-16T23:27:05.299Z,4.25
2023-02-16T23:29:51.645Z,4.85
2023-02-16T23:32:37.854Z,3.72
2023-02-16T23:35:23.997Z,5.13
2023-02-16T23:38:16.256Z,3.65
2023-02-16T23:41:04.565Z,2.72
2023-02-16T23:43:51.026Z,3.00
2023-02-16T23:46:37.615Z,1.25
2023-02-16T23:49:23.336Z,7.43
2023-02-16T23:52:09.861Z,2.65
2023-02-16T23:54:58.796Z,5.22
2023-02-16T23:57:45.536Z,4.03
